sensor_id;sensor_type;location;lat;lon;timestamp;pressure;altitude;pressure_sealevel;temperature;humidity
51321;BME280;38732;49.556;6.286;2023-03-13T00:01:41;98885.28;;;13.28;75.54
51321;BME280;38732;49.556;6.286;2023-03-13T00:04:10;98886.88;;;13.35;74.94
51321;BME280;38732;49.556;6.286;2023-03-13T00:06:39;98885.31;;;13.25;76.55
51321;BME280;38732;49.556;6.286;2023-03-13T00:09:09;98875.09;;;13.17;76.18
51321;BME280;38732;49.556;6.286;2023-03-13T00:11:38;98874.72;;;12.93;78.00
51321;BME280;38732;49.556;6.286;2023-03-13T00:14:07;98871.91;;;13.04;77.60
51321;BME280;38732;49.556;6.286;2023-03-13T00:16:35;98866.13;;;12.91;78.42
51321;BME280;38732;49.556;6.286;2023-03-13T00:19:07;98860.13;;;12.40;82.12
51321;BME280;38732;49.556;6.286;2023-03-13T00:21:36;98863.91;;;12.22;81.76
51321;BME280;38732;49.556;6.286;2023-03-13T00:24:04;98867.72;;;12.97;81.43
51321;BME280;38732;49.556;6.286;2023-03-13T00:26:33;98853.13;;;12.46;84.23
51321;BME280;38732;49.556;6.286;2023-03-13T00:29:01;98852.25;;;12.94;82.89
51321;BME280;38732;49.556;6.286;2023-03-13T00:31:31;98851.34;;;11.99;86.30
51321;BME280;38732;49.556;6.286;2023-03-13T00:34:01;98856.28;;;11.52;94.36
51321;BME280;38732;49.556;6.286;2023-03-13T00:36:32;98842.50;;;12.62;88.07
51321;BME280;38732;49.556;6.286;2023-03-13T00:39:02;98833.66;;;12.73;87.10
51321;BME280;38732;49.556;6.286;2023-03-13T00:41:32;98840.31;;;12.85;86.27
51321;BME280;38732;49.556;6.286;2023-03-13T00:44:00;98828.25;;;12.84;87.33
51321;BME280;38732;49.556;6.286;2023-03-13T00:46:29;98836.78;;;12.88;87.31
51321;BME280;38732;49.556;6.286;2023-03-13T00:48:57;98828.19;;;12.87;87.65
51321;BME280;38732;49.556;6.286;2023-03-13T00:51:26;98828.09;;;12.92;87.73
51321;BME280;38732;49.556;6.286;2023-03-13T00:53:56;98819.50;;;12.90;89.14
51321;BME280;38732;49.556;6.286;2023-03-13T00:56:25;98825.22;;;12.13;98.34
51321;BME280;38732;49.556;6.286;2023-03-13T00:58:54;98823.25;;;11.11;100.00
51321;BME280;38732;49.556;6.286;2023-03-13T01:01:25;98819.19;;;10.88;100.00
51321;BME280;38732;49.556;6.286;2023-03-13T01:03:59;98822.97;;;10.58;100.00
51321;BME280;38732;49.556;6.286;2023-03-13T01:06:29;98814.09;;;9.94;100.00
51321;BME280;38732;49.556;6.286;2023-03-13T01:08:59;98802.59;;;10.30;100.00
51321;BME280;38732;49.556;6.286;2023-03-13T01:11:30;98793.81;;;10.50;100.00
51321;BME280;38732;49.556;6.286;2023-03-13T01:14:02;98793.16;;;11.07;100.00
51321;BME280;38732;49.556;6.286;2023-03-13T01:16:32;98792.28;;;10.26;100.00
51321;BME280;38732;49.556;6.286;2023-03-13T01:19:05;98786.09;;;10.45;100.00
51321;BME280;38732;49.556;6.286;2023-03-13T01:21:33;98789.44;;;9.55;100.00
51321;BME280;38732;49.556;6.286;2023-03-13T01:24:02;98786.66;;;9.84;100.00
51321;BME280;38732;49.556;6.286;2023-03-13T01:26:31;98776.03;;;10.19;100.00
51321;BME280;38732;49.556;6.286;2023-03-13T01:28:59;98775.66;;;10.57;100.00
51321;BME280;38732;49.556;6.286;2023-03-13T01:31:32;98762.94;;;10.41;100.00
51321;BME280;38732;49.556;6.286;2023-03-13T01:34:03;98758.75;;;10.30;100.00
51321;BME280;38732;49.556;6.286;2023-03-13T01:36:32;98750.41;;;10.02;100.00
51321;BME280;38732;49.556;6.286;2023-03-13T01:39:00;98741.47;;;10.35;100.00
51321;BME280;38732;49.556;6.286;2023-03-13T01:41:29;98741.16;;;10.65;100.00
51321;BME280;38732;49.556;6.286;2023-03-13T01:43:58;98744.31;;;10.09;100.00
51321;BME280;38732;49.556;6.286;2023-03-13T01:46:28;98738.47;;;10.74;100.00
51321;BME280;38732;49.556;6.286;2023-03-13T01:49:21;98739.84;;;10.27;100.00
51321;BME280;38732;49.556;6.286;2023-03-13T01:51:53;98732.63;;;9.71;100.00
51321;BME280;38732;49.556;6.286;2023-03-13T01:54:25;98725.38;;;10.10;100.00
51321;BME280;38732;49.556;6.286;2023-03-13T01:57:00;98708.94;;;10.21;100.00
51321;BME280;38732;49.556;6.286;2023-03-13T01:59:32;98711.59;;;10.16;100.00
51321;BME280;38732;49.556;6.286;2023-03-13T02:02:03;98720.69;;;10.48;100.00
51321;BME280;38732;49.556;6.286;2023-03-13T02:04:36;98716.03;;;10.00;100.00
51321;BME280;38732;49.556;6.286;2023-03-13T02:07:09;98711.81;;;10.70;100.00
51321;BME280;38732;49.556;6.286;2023-03-13T02:09:41;98698.06;;;11.32;100.00
51321;BME280;38732;49.556;6.286;2023-03-13T02:12:14;98706.34;;;10.22;100.00
51321;BME280;38732;49.556;6.286;2023-03-13T02:14:44;98698.81;;;10.01;100.00
51321;BME280;38732;49.556;6.286;2023-03-13T02:17:13;98691.41;;;10.50;100.00
51321;BME280;38732;49.556;6.286;2023-03-13T02:19:47;98697.13;;;10.01;100.00
51321;BME280;38732;49.556;6.286;2023-03-13T02:22:32;98702.03;;;10.23;100.00
51321;BME280;38732;49.556;6.286;2023-03-13T02:25:25;98696.31;;;10.73;100.00
51321;BME280;38732;49.556;6.286;2023-03-13T02:27:58;98695.78;;;10.48;100.00
51321;BME280;38732;49.556;6.286;2023-03-13T02:30:27;98687.56;;;10.82;100.00
51321;BME280;38732;49.556;6.286;2023-03-13T02:32:56;98681.63;;;10.77;100.00
51321;BME280;38732;49.556;6.286;2023-03-13T02:35:24;98680.16;;;11.18;100.00
51321;BME280;38732;49.556;6.286;2023-03-13T02:37:56;98677.41;;;10.70;100.00
51321;BME280;38732;49.556;6.286;2023-03-13T02:40:37;98678.09;;;10.83;100.00
51321;BME280;38732;49.556;6.286;2023-03-13T02:43:10;98675.28;;;10.36;100.00
51321;BME280;38732;49.556;6.286;2023-03-13T02:45:39;98667.22;;;11.21;100.00
51321;BME280;38732;49.556;6.286;2023-03-13T02:48:07;98684.81;;;10.28;100.00
51321;BME280;38732;49.556;6.286;2023-03-13T02:50:35;98669.81;;;10.57;100.00
51321;BME280;38732;49.556;6.286;2023-03-13T02:53:05;98658.22;;;10.89;100.00
51321;BME280;38732;49.556;6.286;2023-03-13T02:55:39;98670.13;;;10.34;100.00
51321;BME280;38732;49.556;6.286;2023-03-13T02:58:08;98663.13;;;11.06;100.00
51321;BME280;38732;49.556;6.286;2023-03-13T03:00:36;98648.56;;;10.39;100.00
51321;BME280;38732;49.556;6.286;2023-03-13T03:03:04;98659.19;;;10.80;100.00
51321;BME280;38732;49.556;6.286;2023-03-13T03:05:33;98645.97;;;11.00;100.00
51321;BME280;38732;49.556;6.286;2023-03-13T03:08:01;98644.63;;;10.76;100.00
51321;BME280;38732;49.556;6.286;2023-03-13T03:10:29;98654.19;;;10.68;100.00
51321;BME280;38732;49.556;6.286;2023-03-13T03:12:57;98654.44;;;11.12;100.00
51321;BME280;38732;49.556;6.286;2023-03-13T03:15:25;98644.44;;;10.89;100.00
51321;BME280;38732;49.556;6.286;2023-03-13T03:17:54;98644.63;;;10.76;100.00
51321;BME280;38732;49.556;6.286;2023-03-13T03:20:22;98642.31;;;10.55;100.00
51321;BME280;38732;49.556;6.286;2023-03-13T03:22:50;98625.13;;;11.13;100.00
51321;BME280;38732;49.556;6.286;2023-03-13T03:25:18;98620.28;;;11.45;100.00
51321;BME280;38732;49.556;6.286;2023-03-13T03:27:46;98631.69;;;11.32;100.00
51321;BME280;38732;49.556;6.286;2023-03-13T03:30:15;98623.19;;;10.71;100.00
51321;BME280;38732;49.556;6.286;2023-03-13T03:32:43;98634.53;;;11.17;100.00
51321;BME280;38732;49.556;6.286;2023-03-13T03:35:11;98621.38;;;11.32;100.00
51321;BME280;38732;49.556;6.286;2023-03-13T03:37:39;98606.22;;;10.53;100.00
51321;BME280;38732;49.556;6.286;2023-03-13T03:40:08;98617.25;;;11.20;100.00
51321;BME280;38732;49.556;6.286;2023-03-13T03:42:36;98611.78;;;10.85;100.00
51321;BME280;38732;49.556;6.286;2023-03-13T03:45:05;98602.69;;;11.16;100.00
51321;BME280;38732;49.556;6.286;2023-03-13T03:47:33;98616.63;;;11.57;100.00
51321;BME280;38732;49.556;6.286;2023-03-13T03:50:01;98621.81;;;11.03;100.00
51321;BME280;38732;49.556;6.286;2023-03-13T03:52:30;98618.50;;;10.96;100.00
51321;BME280;38732;49.556;6.286;2023-03-13T03:54:58;98630.72;;;10.85;100.00
51321;BME280;38732;49.556;6.286;2023-03-13T03:57:26;98639.94;;;11.01;100.00
51321;BME280;38732;49.556;6.286;2023-03-13T03:59:54;98619.66;;;11.31;100.00
51321;BME280;38732;49.556;6.286;2023-03-13T04:02:23;98638.03;;;11.14;100.00
51321;BME280;38732;49.556;6.286;2023-03-13T04:04:51;98632.69;;;11.25;100.00
51321;BME280;38732;49.556;6.286;2023-03-13T04:07:19;98637.25;;;11.09;100.00
51321;BME280;38732;49.556;6.286;2023-03-13T04:09:47;98630.13;;;11.23;100.00
51321;BME280;38732;49.556;6.286;2023-03-13T04:12:15;98625.69;;;11.30;100.00
51321;BME280;38732;49.556;6.286;2023-03-13T04:14:44;98623.41;;;11.13;100.00
51321;BME280;38732;49.556;6.286;2023-03-13T04:17:12;98611.81;;;11.37;100.00
51321;BME280;38732;49.556;6.286;2023-03-13T04:19:40;98605.34;;;11.12;100.00
51321;BME280;38732;49.556;6.286;2023-03-13T04:22:09;98614.44;;;11.34;100.00
51321;BME280;38732;49.556;6.286;2023-03-13T04:24:37;98603.25;;;11.34;100.00
51321;BME280;38732;49.556;6.286;2023-03-13T04:27:05;98608.69;;;11.18;100.00
51321;BME280;38732;49.556;6.286;2023-03-13T04:29:33;98615.06;;;11.49;100.00
51321;BME280;38732;49.556;6.286;2023-03-13T04:32:01;98598.09;;;11.80;100.00
51321;BME280;38732;49.556;6.286;2023-03-13T04:34:30;98604.69;;;10.99;100.00
51321;BME280;38732;49.556;6.286;2023-03-13T04:36:58;98613.75;;;11.23;100.00
51321;BME280;38732;49.556;6.286;2023-03-13T04:39:27;98613.09;;;11.10;100.00
51321;BME280;38732;49.556;6.286;2023-03-13T04:41:55;98615.22;;;11.41;100.00
51321;BME280;38732;49.556;6.286;2023-03-13T04:44:23;98619.06;;;11.15;100.00
51321;BME280;38732;49.556;6.286;2023-03-13T04:46:52;98609.66;;;11.11;100.00
51321;BME280;38732;49.556;6.286;2023-03-13T04:49:20;98606.69;;;11.36;100.00
51321;BME280;38732;49.556;6.286;2023-03-13T04:51:48;98614.78;;;11.64;100.00
51321;BME280;38732;49.556;6.286;2023-03-13T04:54:16;98606.91;;;11.20;100.00
51321;BME280;38732;49.556;6.286;2023-03-13T04:56:44;98613.09;;;11.12;100.00
51321;BME280;38732;49.556;6.286;2023-03-13T04:59:14;98620.53;;;11.32;100.00
51321;BME280;38732;49.556;6.286;2023-03-13T05:01:42;98613.53;;;11.37;100.00
51321;BME280;38732;49.556;6.286;2023-03-13T05:04:10;98613.97;;;11.60;100.00
51321;BME280;38732;49.556;6.286;2023-03-13T05:06:39;98600.66;;;11.82;100.00
51321;BME280;38732;49.556;6.286;2023-03-13T05:09:07;98596.19;;;11.92;100.00
51321;BME280;38732;49.556;6.286;2023-03-13T05:11:35;98598.09;;;11.80;100.00
51321;BME280;38732;49.556;6.286;2023-03-13T05:14:03;98605.47;;;12.03;100.00
51321;BME280;38732;49.556;6.286;2023-03-13T05:16:31;98589.06;;;12.03;100.00
51321;BME280;38732;49.556;6.286;2023-03-13T05:18:59;98589.44;;;11.36;100.00
51321;BME280;38732;49.556;6.286;2023-03-13T05:21:28;98583.75;;;11.64;100.00
51321;BME280;38732;49.556;6.286;2023-03-13T05:23:56;98590.78;;;11.57;100.00
51321;BME280;38732;49.556;6.286;2023-03-13T05:26:24;98572.81;;;11.50;100.00
51321;BME280;38732;49.556;6.286;2023-03-13T05:28:52;98570.00;;;11.63;100.00
51321;BME280;38732;49.556;6.286;2023-03-13T05:31:21;98574.72;;;11.40;100.00
51321;BME280;38732;49.556;6.286;2023-03-13T05:33:49;98578.34;;;11.28;100.00
51321;BME280;38732;49.556;6.286;2023-03-13T05:36:17;98585.00;;;11.43;100.00
51321;BME280;38732;49.556;6.286;2023-03-13T05:38:45;98589.66;;;11.22;100.00
51321;BME280;38732;49.556;6.286;2023-03-13T05:41:14;98588.44;;;11.92;100.00
51321;BME280;38732;49.556;6.286;2023-03-13T05:43:42;98587.19;;;11.66;100.00
51321;BME280;38732;49.556;6.286;2023-03-13T05:46:10;98584.53;;;11.69;100.00
51321;BME280;38732;49.556;6.286;2023-03-13T05:48:38;98590.13;;;11.93;100.00
51321;BME280;38732;49.556;6.286;2023-03-13T05:51:06;98588.81;;;12.15;100.00
51321;BME280;38732;49.556;6.286;2023-03-13T05:53:34;98580.47;;;12.02;100.00
51321;BME280;38732;49.556;6.286;2023-03-13T05:56:03;98583.13;;;11.99;100.00
51321;BME280;38732;49.556;6.286;2023-03-13T05:58:31;98598.16;;;11.79;100.00
51321;BME280;38732;49.556;6.286;2023-03-13T06:01:08;98592.78;;;12.33;100.00
51321;BME280;38732;49.556;6.286;2023-03-13T06:03:36;98583.59;;;12.18;100.00
51321;BME280;38732;49.556;6.286;2023-03-13T06:06:05;98580.22;;;13.28;100.00
51321;BME280;38732;49.556;6.286;2023-03-13T06:08:33;98571.75;;;13.56;100.00
51321;BME280;38732;49.556;6.286;2023-03-13T06:11:01;98574.28;;;12.87;100.00
51321;BME280;38732;49.556;6.286;2023-03-13T06:13:30;98566.47;;;12.51;100.00
51321;BME280;38732;49.556;6.286;2023-03-13T06:15:58;98574.19;;;12.14;100.00
51321;BME280;38732;49.556;6.286;2023-03-13T06:18:26;98574.59;;;12.36;100.00
51321;BME280;38732;49.556;6.286;2023-03-13T06:20:59;98562.97;;;12.91;100.00
51321;BME280;38732;49.556;6.286;2023-03-13T06:23:28;98566.72;;;13.15;100.00
51321;BME280;38732;49.556;6.286;2023-03-13T06:25:56;98568.56;;;11.94;100.00
51321;BME280;38732;49.556;6.286;2023-03-13T06:28:24;98566.84;;;11.93;100.00
51321;BME280;38732;49.556;6.286;2023-03-13T06:30:52;98580.66;;;11.93;100.00
51321;BME280;38732;49.556;6.286;2023-03-13T06:33:20;98588.72;;;11.76;100.00
51321;BME280;38732;49.556;6.286;2023-03-13T06:35:49;98581.59;;;11.89;100.00
51321;BME280;38732;49.556;6.286;2023-03-13T06:38:17;98575.34;;;12.41;100.00
51321;BME280;38732;49.556;6.286;2023-03-13T06:40:45;98582.47;;;11.88;100.00
51321;BME280;38732;49.556;6.286;2023-03-13T06:43:13;98593.00;;;11.77;100.00
51321;BME280;38732;49.556;6.286;2023-03-13T06:45:41;98599.16;;;12.15;100.00
51321;BME280;38732;49.556;6.286;2023-03-13T06:48:10;98585.53;;;12.08;100.00
51321;BME280;38732;49.556;6.286;2023-03-13T06:50:38;98604.16;;;11.81;100.00
51321;BME280;38732;49.556;6.286;2023-03-13T06:53:15;98601.38;;;11.92;100.00
51321;BME280;38732;49.556;6.286;2023-03-13T06:55:44;98598.63;;;11.99;100.00
51321;BME280;38732;49.556;6.286;2023-03-13T06:58:13;98599.16;;;12.17;100.00
51321;BME280;38732;49.556;6.286;2023-03-13T07:00:42;98611.81;;;12.30;100.00
51321;BME280;38732;49.556;6.286;2023-03-13T07:03:11;98607.69;;;11.75;100.00
51321;BME280;38732;49.556;6.286;2023-03-13T07:05:39;98596.56;;;12.15;100.00
51321;BME280;38732;49.556;6.286;2023-03-13T07:08:07;98596.94;;;12.79;100.00
51321;BME280;38732;49.556;6.286;2023-03-13T07:10:35;98601.22;;;12.41;100.00
51321;BME280;38732;49.556;6.286;2023-03-13T07:13:04;98593.91;;;12.20;100.00
51321;BME280;38732;49.556;6.286;2023-03-13T07:15:32;98593.09;;;12.58;100.00
51321;BME280;38732;49.556;6.286;2023-03-13T07:18:00;98581.09;;;13.29;100.00
51321;BME280;38732;49.556;6.286;2023-03-13T07:20:28;98569.34;;;13.48;100.00
51321;BME280;38732;49.556;6.286;2023-03-13T07:22:56;98576.47;;;13.04;100.00
51321;BME280;38732;49.556;6.286;2023-03-13T07:25:25;98562.63;;;13.72;100.00
51321;BME280;38732;49.556;6.286;2023-03-13T07:27:53;98568.81;;;14.29;100.00
51321;BME280;38732;49.556;6.286;2023-03-13T07:30:21;98563.03;;;13.58;100.00
51321;BME280;38732;49.556;6.286;2023-03-13T07:32:49;98552.84;;;14.13;100.00
51321;BME280;38732;49.556;6.286;2023-03-13T07:35:17;98552.88;;;13.15;100.00
51321;BME280;38732;49.556;6.286;2023-03-13T07:37:46;98549.59;;;13.08;100.00
51321;BME280;38732;49.556;6.286;2023-03-13T07:40:14;98548.41;;;13.56;100.00
51321;BME280;38732;49.556;6.286;2023-03-13T07:42:42;98552.91;;;14.10;100.00
51321;BME280;38732;49.556;6.286;2023-03-13T07:45:10;98555.41;;;13.18;100.00
51321;BME280;38732;49.556;6.286;2023-03-13T07:47:38;98559.97;;;13.75;100.00
51321;BME280;38732;49.556;6.286;2023-03-13T07:50:07;98563.75;;;12.58;100.00
51321;BME280;38732;49.556;6.286;2023-03-13T07:52:36;98559.16;;;12.32;100.00
51321;BME280;38732;49.556;6.286;2023-03-13T07:55:04;98553.34;;;12.95;100.00
51321;BME280;38732;49.556;6.286;2023-03-13T07:57:32;98557.38;;;13.08;100.00
51321;BME280;38732;49.556;6.286;2023-03-13T08:00:00;98547.63;;;13.18;100.00
51321;BME280;38732;49.556;6.286;2023-03-13T08:02:28;98533.41;;;13.34;100.00
51321;BME280;38732;49.556;6.286;2023-03-13T08:04:57;98545.03;;;13.18;100.00
51321;BME280;38732;49.556;6.286;2023-03-13T08:07:25;98539.19;;;13.44;100.00
51321;BME280;38732;49.556;6.286;2023-03-13T08:09:53;98547.81;;;13.10;100.00
51321;BME280;38732;49.556;6.286;2023-03-13T08:12:21;98536.31;;;13.86;100.00
51321;BME280;38732;49.556;6.286;2023-03-13T08:14:49;98543.94;;;12.55;100.00
51321;BME280;38732;49.556;6.286;2023-03-13T08:17:18;98529.69;;;12.74;100.00
51321;BME280;38732;49.556;6.286;2023-03-13T08:19:46;98535.34;;;12.55;100.00
51321;BME280;38732;49.556;6.286;2023-03-13T08:22:14;98534.00;;;12.38;100.00
51321;BME280;38732;49.556;6.286;2023-03-13T08:24:42;98530.47;;;12.78;100.00
51321;BME280;38732;49.556;6.286;2023-03-13T08:27:10;98529.56;;;12.79;100.00
51321;BME280;38732;49.556;6.286;2023-03-13T08:29:39;98511.84;;;12.62;100.00
51321;BME280;38732;49.556;6.286;2023-03-13T08:32:07;98530.25;;;12.50;100.00
51321;BME280;38732;49.556;6.286;2023-03-13T08:34:35;98508.75;;;13.82;100.00
51321;BME280;38732;49.556;6.286;2023-03-13T08:37:05;98523.16;;;12.94;100.00
51321;BME280;38732;49.556;6.286;2023-03-13T08:39:33;98511.47;;;12.40;100.00
51321;BME280;38732;49.556;6.286;2023-03-13T08:42:01;98505.38;;;12.80;100.00
51321;BME280;38732;49.556;6.286;2023-03-13T08:44:29;98503.41;;;12.90;100.00
51321;BME280;38732;49.556;6.286;2023-03-13T08:46:58;98494.91;;;13.52;100.00
51321;BME280;38732;49.556;6.286;2023-03-13T08:49:26;98495.63;;;12.90;100.00
51321;BME280;38732;49.556;6.286;2023-03-13T08:51:54;98488.03;;;13.51;100.00
51321;BME280;38732;49.556;6.286;2023-03-13T08:54:22;98475.72;;;13.25;100.00
51321;BME280;38732;49.556;6.286;2023-03-13T08:56:50;98499.66;;;13.02;100.00
51321;BME280;38732;49.556;6.286;2023-03-13T08:59:19;98490.41;;;12.91;100.00
51321;BME280;38732;49.556;6.286;2023-03-13T09:01:47;98480.97;;;12.90;100.00
51321;BME280;38732;49.556;6.286;2023-03-13T09:04:15;98476.03;;;12.80;100.00
51321;BME280;38732;49.556;6.286;2023-03-13T09:06:43;98470.25;;;13.37;100.00
51321;BME280;38732;49.556;6.286;2023-03-13T09:09:11;98505.34;;;12.82;100.00
51321;BME280;38732;49.556;6.286;2023-03-13T09:11:40;98474.81;;;13.27;100.00
51321;BME280;38732;49.556;6.286;2023-03-13T09:14:09;98467.91;;;12.93;100.00
51321;BME280;38732;49.556;6.286;2023-03-13T09:16:37;98465.66;;;13.47;100.00
51321;BME280;38732;49.556;6.286;2023-03-13T09:19:05;98458.09;;;13.39;100.00
51321;BME280;38732;49.556;6.286;2023-03-13T09:21:34;98472.31;;;13.23;100.00
51321;BME280;38732;49.556;6.286;2023-03-13T09:24:03;98464.69;;;13.18;100.00
51321;BME280;38732;49.556;6.286;2023-03-13T09:26:31;98461.19;;;12.86;100.00
51321;BME280;38732;49.556;6.286;2023-03-13T09:29:00;98451.38;;;12.98;100.00
51321;BME280;38732;49.556;6.286;2023-03-13T09:31:30;98445.03;;;13.09;100.00
51321;BME280;38732;49.556;6.286;2023-03-13T09:33:59;98464.91;;;13.10;100.00
51321;BME280;38732;49.556;6.286;2023-03-13T09:36:28;98459.75;;;13.07;100.00
51321;BME280;38732;49.556;6.286;2023-03-13T09:38:58;98453.31;;;13.22;100.00
51321;BME280;38732;49.556;6.286;2023-03-13T09:44:31;98444.22;;;13.71;100.00
51321;BME280;38732;49.556;6.286;2023-03-13T09:47:05;98422.06;;;13.59;100.00
51321;BME280;38732;49.556;6.286;2023-03-13T09:52:22;98419.25;;;14.23;100.00
51321;BME280;38732;49.556;6.286;2023-03-13T09:57:55;98425.13;;;13.43;100.00
51321;BME280;38732;49.556;6.286;2023-03-13T10:00:30;98446.50;;;14.38;100.00
51321;BME280;38732;49.556;6.286;2023-03-13T10:03:39;98424.78;;;13.55;100.00
51321;BME280;38732;49.556;6.286;2023-03-13T10:06:19;98423.13;;;13.82;100.00
51321;BME280;38732;49.556;6.286;2023-03-13T10:08:47;98442.50;;;13.70;100.00
51321;BME280;38732;49.556;6.286;2023-03-13T10:11:24;98427.34;;;13.56;100.00
51321;BME280;38732;49.556;6.286;2023-03-13T10:14:01;98419.88;;;13.46;100.00
51321;BME280;38732;49.556;6.286;2023-03-13T10:16:37;98421.88;;;13.95;100.00
51321;BME280;38732;49.556;6.286;2023-03-13T10:19:18;98404.94;;;14.10;100.00
51321;BME280;38732;49.556;6.286;2023-03-13T10:21:50;98412.09;;;14.03;100.00
51321;BME280;38732;49.556;6.286;2023-03-13T10:24:32;98387.63;;;14.91;100.00
51321;BME280;38732;49.556;6.286;2023-03-13T10:27:03;98392.66;;;14.43;100.00
51321;BME280;38732;49.556;6.286;2023-03-13T10:29:32;98375.44;;;14.93;100.00
51321;BME280;38732;49.556;6.286;2023-03-13T10:32:02;98387.72;;;14.87;100.00
51321;BME280;38732;49.556;6.286;2023-03-13T10:34:54;98375.34;;;15.43;100.00
51321;BME280;38732;49.556;6.286;2023-03-13T10:37:41;98382.69;;;15.08;100.00
51321;BME280;38732;49.556;6.286;2023-03-13T10:40:26;98379.16;;;14.85;100.00
51321;BME280;38732;49.556;6.286;2023-03-13T10:43:03;98382.19;;;13.92;100.00
51321;BME280;38732;49.556;6.286;2023-03-13T10:45:34;98367.28;;;15.49;100.00
51321;BME280;38732;49.556;6.286;2023-03-13T10:48:17;98356.44;;;15.61;100.00
51321;BME280;38732;49.556;6.286;2023-03-13T10:50:48;98364.19;;;14.40;100.00
51321;BME280;38732;49.556;6.286;2023-03-13T10:53:31;98352.63;;;15.70;100.00
51321;BME280;38732;49.556;6.286;2023-03-13T10:56:08;98340.63;;;16.32;95.24
51321;BME280;38732;49.556;6.286;2023-03-13T10:58:43;98325.88;;;16.10;95.49
51321;BME280;38732;49.556;6.286;2023-03-13T11:01:28;98317.53;;;15.13;100.00
51321;BME280;38732;49.556;6.286;2023-03-13T11:03:57;98319.59;;;14.28;100.00
51321;BME280;38732;49.556;6.286;2023-03-13T11:06:31;98305.66;;;14.30;100.00
51321;BME280;38732;49.556;6.286;2023-03-13T11:09:09;98289.34;;;15.24;100.00
51321;BME280;38732;49.556;6.286;2023-03-13T11:11:46;98287.59;;;15.24;100.00
51321;BME280;38732;49.556;6.286;2023-03-13T11:14:18;98295.47;;;16.11;100.00
51321;BME280;38732;49.556;6.286;2023-03-13T11:17:04;98306.59;;;15.03;100.00
51321;BME280;38732;49.556;6.286;2023-03-13T11:19:46;98297.53;;;15.59;100.00
51321;BME280;38732;49.556;6.286;2023-03-13T11:27:47;98300.97;;;14.90;100.00
51321;BME280;38732;49.556;6.286;2023-03-13T11:33:35;98298.78;;;15.94;99.08
51321;BME280;38732;49.556;6.286;2023-03-13T11:36:12;98294.78;;;16.28;98.22
51321;BME280;38732;49.556;6.286;2023-03-13T11:38:43;98289.31;;;15.47;100.00
51321;BME280;38732;49.556;6.286;2023-03-13T11:44:27;98288.59;;;15.66;100.00
51321;BME280;38732;49.556;6.286;2023-03-13T11:52:24;98276.91;;;14.85;100.00
51321;BME280;38732;49.556;6.286;2023-03-13T11:55:32;98257.63;;;16.02;100.00
51321;BME280;38732;49.556;6.286;2023-03-13T11:58:25;98262.59;;;16.08;100.00
51321;BME280;38732;49.556;6.286;2023-03-13T12:01:02;98262.00;;;16.02;100.00
51321;BME280;38732;49.556;6.286;2023-03-13T12:06:31;98238.09;;;16.72;99.94
51321;BME280;38732;49.556;6.286;2023-03-13T12:09:13;98239.81;;;15.27;100.00
51321;BME280;38732;49.556;6.286;2023-03-13T12:12:01;98236.91;;;15.35;100.00
51321;BME280;38732;49.556;6.286;2023-03-13T12:14:40;98217.34;;;16.31;100.00
51321;BME280;38732;49.556;6.286;2023-03-13T12:17:23;98209.50;;;17.10;98.05
51321;BME280;38732;49.556;6.286;2023-03-13T12:20:07;98207.63;;;17.31;94.76
51321;BME280;38732;49.556;6.286;2023-03-13T12:22:46;98187.56;;;17.51;92.60
51321;BME280;38732;49.556;6.286;2023-03-13T12:25:27;98181.84;;;17.06;96.99
51321;BME280;38732;49.556;6.286;2023-03-13T12:28:14;98182.31;;;17.14;95.08
51321;BME280;38732;49.556;6.286;2023-03-13T12:30:51;98175.19;;;17.54;92.25
51321;BME280;38732;49.556;6.286;2023-03-13T12:33:25;98163.44;;;17.28;94.79
51321;BME280;38732;49.556;6.286;2023-03-13T12:36:12;98150.97;;;17.16;96.01
51321;BME280;38732;49.556;6.286;2023-03-13T12:38:50;98155.84;;;16.48;96.44
51321;BME280;38732;49.556;6.286;2023-03-13T12:43:57;98134.25;;;17.72;92.08
51321;BME280;38732;49.556;6.286;2023-03-13T12:46:40;98126.19;;;17.77;91.21
51321;BME280;38732;49.556;6.286;2023-03-13T12:49:40;98125.44;;;16.86;95.37
51321;BME280;38732;49.556;6.286;2023-03-13T12:55:41;98112.78;;;17.50;91.57
51321;BME280;38732;49.556;6.286;2023-03-13T12:58:38;98108.63;;;17.98;88.13
51321;BME280;38732;49.556;6.286;2023-03-13T13:01:13;98116.03;;;17.37;93.52
51321;BME280;38732;49.556;6.286;2023-03-13T13:06:52;98119.03;;;17.11;100.00
51321;BME280;38732;49.556;6.286;2023-03-13T13:09:22;98122.75;;;15.71;100.00
51321;BME280;38732;49.556;6.286;2023-03-13T13:11:53;98136.19;;;16.59;100.00
51321;BME280;38732;49.556;6.286;2023-03-13T13:17:15;98096.22;;;14.76;100.00
51321;BME280;38732;49.556;6.286;2023-03-13T13:19:46;98085.78;;;15.83;100.00
51321;BME280;38732;49.556;6.286;2023-03-13T13:25:36;98036.84;;;16.10;100.00
51321;BME280;38732;49.556;6.286;2023-03-13T13:28:22;98033.69;;;16.23;100.00
51321;BME280;38732;49.556;6.286;2023-03-13T13:30:54;98047.72;;;14.08;100.00
51321;BME280;38732;49.556;6.286;2023-03-13T13:38:47;98022.94;;;14.68;100.00
51321;BME280;38732;49.556;6.286;2023-03-13T13:43:46;98013.13;;;15.58;100.00
51321;BME280;38732;49.556;6.286;2023-03-13T13:46:30;97990.09;;;16.45;100.00
51321;BME280;38732;49.556;6.286;2023-03-13T13:51:38;98005.31;;;15.58;100.00
51321;BME280;38732;49.556;6.286;2023-03-13T13:56:58;98043.50;;;13.81;100.00
51321;BME280;38732;49.556;6.286;2023-03-13T13:59:35;98062.22;;;13.90;100.00
51321;BME280;38732;49.556;6.286;2023-03-13T14:04:37;98042.00;;;13.74;100.00
51321;BME280;38732;49.556;6.286;2023-03-13T14:07:16;98040.22;;;13.76;100.00
51321;BME280;38732;49.556;6.286;2023-03-13T14:09:58;98032.59;;;14.19;100.00
51321;BME280;38732;49.556;6.286;2023-03-13T14:12:30;98019.25;;;14.74;100.00
51321;BME280;38732;49.556;6.286;2023-03-13T14:15:06;97982.97;;;14.93;100.00